METAR Data
IDs: Format: Raw Decoded Include TAF

Data at: 0149 UTC 25 Mar 2019

KTNU 250135Z AUTO 04010KT 2 1/2SM BR OVC003 07/07 A3007 RMK AO2
KTNU 250115Z AUTO 03009KT 3SM BR OVC003 07/07 A3007 RMK AO2
KTNU 250055Z AUTO 03011KT 3SM BR OVC004 08/07 A3006 RMK AO2
KTNU 250035Z AUTO 04010KT 3SM BR OVC004 08/08 A3005 RMK AO2
KTNU 250015Z AUTO 03009KT 2 1/2SM BR OVC004 08/08 A3004 RMK AO2
KTNU 242355Z AUTO 03010KT 2 1/2SM BR OVC005 08/08 A3003 RMK AO2
KTNU 242335Z AUTO 03011KT 2 1/2SM BR OVC005 08/08 A3003 RMK AO2
KTNU 242315Z AUTO 03010KT 3SM BR OVC005 08/08 A3002 RMK AO2
KTNU 242255Z AUTO 03010KT 2 1/2SM BR OVC005 08/08 A3002 RMK AO2
KTNU 242235Z AUTO 03011KT 2SM -RA OVC005 08/08 A3002 RMK AO2
KTNU 242215Z AUTO 03012G17KT 3SM BR OVC007 09/09 A3001 RMK AO2
KTNU 242155Z AUTO 02013KT 5SM BR OVC008 09/09 A3001 RMK AO2
KTNU 242135Z AUTO 03011KT 5SM BR OVC008 09/09 A3000 RMK AO2
KTNU 242115Z AUTO 03009KT 4SM BR OVC007 09/09 A3000 RMK AO2
KTNU 242055Z AUTO 03011KT 6SM BR OVC009 10/09 A2999 RMK AO2
KTNU 242035Z AUTO 04009KT 7SM OVC010 10/10 A2998 RMK AO2
KTNU 242015Z AUTO 03008KT 7SM OVC010 10/10 A2998 RMK AO2
KTNU 241955Z AUTO 04006KT 7SM OVC012 10/09 A2998 RMK AO2
KTNU 241935Z AUTO 07007KT 7SM SCT009 BKN013 10/10 A2998 RMK AO2
KTNU 241915Z AUTO 07006KT 7SM BKN007 BKN013 10/10 A2998 RMK AO2
KTNU 241855Z AUTO 08006KT 7SM OVC007 09/09 A2998 RMK AO2
KTNU 241835Z AUTO 06005KT 6SM BR OVC006 09/09 A2999 RMK AO2
KTNU 241815Z AUTO 08004KT 6SM BR BKN007 OVC015 09/09 A2999 RMK AO2
KTNU 241755Z AUTO 12004KT 7SM OVC007 09/09 A3000 RMK AO2
KTNU 241735Z AUTO 14007KT 5SM BR BKN006 09/08 A3000 RMK AO2
KTNU 241715Z AUTO 12006KT 3SM BR OVC005 08/08 A3000 RMK AO2
KTNU 241655Z AUTO 12005KT 3SM -DZ OVC005 08/08 A3001 RMK AO2 P0002
KTNU 241635Z AUTO 13006KT 2SM BR OVC007 08/08 A3002 RMK AO2
KTNU 241615Z AUTO 12006KT 7SM OVC006 08/08 A3001 RMK AO2
KTNU 241555Z AUTO 10009KT 6SM BR OVC006 08/08 A3001 RMK AO2
KTNU 241535Z AUTO 10008KT 5SM BR OVC005 08/08 A3000 RMK AO2
KTNU 241515Z AUTO 09007KT 5SM BR BKN005 OVC017 08/08 A3000 RMK AO2
KTNU 241455Z AUTO 10007KT 4SM BR SCT004 OVC017 07/07 A3000 RMK AO2
KTNU 241435Z AUTO 10009KT 3SM BR BKN004 OVC017 07/07 A3001 RMK AO2
KTNU 241415Z AUTO 09008KT 2 1/2SM BR OVC003 07/07 A3001 RMK AO2
KTNU 241355Z AUTO 09007KT 2 1/2SM BR BKN004 OVC018 07/07 A3000 RMK AO2
KTNU 241335Z AUTO 10008KT 3SM BR FEW004 OVC018 07/06 A3000 RMK AO2
KTNU 241315Z AUTO 09007KT 3SM BR OVC019 06/06 A3000 RMK AO2
KTNU 241255Z AUTO 09007KT 3SM BR OVC019 06/06 A3000 RMK AO2
KTNU 241235Z AUTO 10006KT 3SM BR OVC019 06/06 A3000 RMK AO2
KTNU 241215Z AUTO 10007KT 5SM BR OVC019 06/06 A3000 RMK AO2
KTNU 241155Z AUTO 09006KT 5SM BR OVC020 06/06 A3000 RMK AO2
KTNU 241135Z AUTO 10006KT 5SM BR OVC020 06/06 A3000 RMK AO2
KTNU 241115Z AUTO 09009KT 6SM BR OVC021 06/06 A3001 RMK AO2
KTNU 241055Z AUTO 10007KT 5SM BR OVC021 06/05 A3001 RMK AO2
KTNU 241035Z AUTO 10007KT 6SM BR OVC023 06/06 A3001 RMK AO2
KTNU 241015Z AUTO 10006KT 6SM BR OVC024 06/06 A3001 RMK AO2
KTNU 240955Z AUTO 10006KT 7SM OVC026 06/06 A3001 RMK AO2 P0001
KTNU 240935Z AUTO 10007KT 8SM OVC026 06/06 A3001 RMK AO2
KTNU 240915Z AUTO 14008KT 5SM -UP BKN027 OVC031 06/06 A3002 RMK AO2
KTNU 240855Z AUTO 14007KT 10SM OVC032 06/06 A3002 RMK AO2
KTNU 240835Z AUTO 13007KT 10SM OVC033 06/06 A3002 RMK AO2
KTNU 240815Z AUTO 13008KT 10SM OVC033 06/06 A3004 RMK AO2
KTNU 240755Z AUTO 13008KT 10SM BKN029 OVC036 06/06 A3004 RMK AO2
KTNU 240735Z AUTO 14010KT 7SM BKN028 OVC034 06/05 A3005 RMK AO2
KTNU 240715Z AUTO 14010KT 10SM OVC039 07/04 A3005 RMK AO2
KTNU 240655Z AUTO 13010KT 10SM BKN041 OVC047 07/04 A3005 RMK AO2
KTNU 240635Z AUTO 13009KT 10SM BKN046 OVC055 07/04 A3005 RMK AO2
KTNU 240615Z AUTO 13008KT 10SM OVC041 07/04 A3005 RMK AO2
KTNU 240555Z AUTO 12009KT 10SM OVC042 07/04 A3006 RMK AO2
KTNU 240535Z AUTO 12009KT 10SM OVC043 07/05 A3006 RMK AO2
KTNU 240515Z AUTO 12010KT 10SM OVC043 07/05 A3007 RMK AO2
KTNU 240455Z AUTO 13009KT 10SM -RA OVC042 07/05 A3007 RMK AO2
KTNU 240435Z AUTO 13010KT 9SM OVC041 08/04 A3007 RMK AO2
KTNU 240415Z AUTO 13009KT 10SM SCT037 OVC045 08/03 A3008 RMK AO2
KTNU 240355Z AUTO 12010KT 10SM BKN045 BKN055 OVC065 09/02 A3008 RMK AO2
KTNU 240335Z AUTO 13009KT 10SM SCT055 OVC065 08/02 A3009 RMK AO2
KTNU 240315Z AUTO 12008KT 10SM OVC065 09/02 A3009 RMK AO2
KTNU 240255Z AUTO 12010KT 10SM OVC070 09/02 A3009 RMK AO2
KTNU 240235Z AUTO 13009KT 10SM OVC075 09/02 A3009 RMK AO2
KTNU 240215Z AUTO 12010KT 10SM BKN080 OVC090 09/02 A3009 RMK AO2
KTNU 240155Z AUTO 10/04166710KT 10SM FEW055 OVC085 09/02 A3008 RMK AO2
KTNU 240135Z AUTO 12012KT 10SM FEW050 SCT070 OVC090 09/02 A3008 RMK AO2
KTNU 240115Z AUTO 12012KT 10SM OVC090 09/02 A3009 RMK AO2
KTNU 240055Z AUTO 12010KT 10SM OVC090 09/02 A3009 RMK AO2
KTNU 240035Z AUTO 12010KT 10SM OVC090 10/02 A3010 RMK AO2
KTNU 240015Z AUTO 12011KT 10SM OVC090 10/02 A3010 RMK AO2
KTNU 232355Z AUTO 12011KT 10SM BKN095 OVC120 10/02 A3010 RMK AO2
KTNU 232335Z AUTO 13007G13KT 10SM BKN100 11/02 A3010 RMK AO2
KTNU 232315Z AUTO 11009KT 10SM BKN095 11/02 A3010 RMK AO2
KTNU 232255Z AUTO 12007G13KT 10SM OVC095 11/02 A3010 RMK AO2
KTNU 232235Z AUTO 12010KT 10SM OVC100 11/02 A3011 RMK AO2
KTNU 232215Z AUTO 12011KT 10SM OVC100 12/02 A3011 RMK AO2
KTNU 232155Z AUTO 10012KT 10SM FEW080 BKN110 12/02 A3010 RMK AO2
KTNU 232135Z AUTO 11013KT 10SM FEW065 FEW080 FEW100 12/01 A3012 RMK AO2
KTNU 232115Z AUTO 13011KT 10SM FEW110 12/01 A3013 RMK AO2
KTNU 232055Z AUTO 11011KT 10SM CLR 12/01 A3013 RMK AO2
KTNU 232035Z AUTO 14011KT 10SM CLR 12/02 A3014 RMK AO2
KTNU 232015Z AUTO 13010KT 10SM FEW120 12/01 A3013 RMK AO2
KTNU 231955Z AUTO 15009G16KT FEW120 13/01 A3015 RMK AO2
KTNU 231935Z AUTO 16009KT 10SM CLR 12/01 A3016 RMK AO2
KTNU 231915Z AUTO 15008G14KT 10SM CLR 12/01 A3017 RMK AO2
KTNU 231855Z AUTO 16010G17KT 10SM CLR 12/01 A3018 RMK AO2
KTNU 231835Z AUTO 15013KT 10SM CLR 11/01 A3019 RMK AO2
KTNU 231815Z AUTO 16011KT 10SM CLR 11/01 A3019 RMK AO2
KTNU 231755Z AUTO 15014KT 10SM CLR 11/01 A3019 RMK AO2
KTNU 231735Z AUTO 15014G19KT 10SM CLR 10/01 A3019 RMK AO2
KTNU 231715Z AUTO 18013KT 10SM CLR 10/01 A3020 RMK AO2
KTNU 231655Z AUTO 15014KT 10SM CLR 10/01 A3020 RMK AO2
KTNU 231635Z AUTO 15011KT 10SM CLR 10/02 A3020 RMK AO2
KTNU 231615Z AUTO 14011KT 10SM CLR 09/02 A3021 RMK AO2
KTNU 231555Z AUTO 15011G16KT 10SM CLR 08/02 A3022 RMK AO2
KTNU 231535Z AUTO 15012KT 10SM CLR 08/01 A3022 RMK AO2
KTNU 231515Z AUTO 14010KT 10SM CLR 07/02 A3022 RMK AO2
KTNU 231455Z AUTO 14010KT 10SM CLR 06/01 A3023 RMK AO2
KTNU 231435Z AUTO 14008KT 10SM CLR 05/01 A3023 RMK AO2
KTNU 231415Z AUTO 13007KT 10SM CLR 04/00 A3023 RMK AO2
KTNU 231355Z AUTO 09006KT 10SM CLR 02/00 A3023 RMK AO2